Time;durP1;ratioP1;P1;durP2;ratioP2;P2;SDS_P1;SDS_P2;PMS_P1;PMS_P2;Temp;Humidity;BMP_temperature;BMP_pressure;BME280_temperature;BME280_humidity;BME280_pressure;Samples;Min_cycle;Max_cycle;Signal;HPM_P1;HPM_P2
2022/05/14 00:01:29;;;;;;;50.13;29.17;;;;;;;21.25;44.99;102127.38;5083472;28;20463;-58
2022/05/14 00:03:57;;;;;;;52.88;30.25;;;;;;;21.23;45.48;102122.13;5086162;28;20044;-59
2022/05/14 00:06:27;;;;;;;50.47;30.85;;;;;;;21.20;45.66;102127.81;5087252;28;20040;-58
2022/05/14 00:08:54;;;;;;;48.47;28.40;;;;;;;21.17;45.55;102112.75;5086707;28;20044;-59
2022/05/14 00:14:07;;;;;;;49.55;29.30;;;;;;;21.16;45.60;102119.13;5083283;28;20040;-57
2022/05/14 00:16:35;;;;;;;47.50;27.63;;;;;;;21.18;45.88;102116.28;5084657;28;20915;-58
2022/05/14 00:19:05;;;;;;;47.63;28.45;;;;;;;21.15;45.88;102119.28;5083251;28;20054;-58
2022/05/14 00:21:32;;;;;;;47.28;28.63;;;;;;;21.15;45.66;102122.00;5080767;28;20036;-59
2022/05/14 00:23:58;;;;;;;48.50;28.48;;;;;;;21.14;45.49;102120.25;5082268;28;20162;-58
2022/05/14 00:26:26;;;;;;;49.47;28.83;;;;;;;21.12;46.17;102124.97;5081324;28;20057;-57
2022/05/14 00:28:53;;;;;;;46.85;27.35;;;;;;;21.12;45.91;102123.13;5084804;28;20094;-57
2022/05/14 00:31:19;;;;;;;45.22;27.70;;;;;;;21.11;45.61;102121.44;5081074;28;20044;-57
2022/05/14 00:33:46;;;;;;;44.03;26.42;;;;;;;21.12;45.81;102123.13;5086848;28;20121;-58
2022/05/14 00:36:14;;;;;;;49.30;27.85;;;;;;;21.09;46.33;102118.00;5080522;28;20040;-59
2022/05/14 00:38:42;;;;;;;48.42;26.30;;;;;;;21.09;45.62;102115.31;5082278;28;20074;-59
2022/05/14 00:41:09;;;;;;;48.38;27.25;;;;;;;21.08;46.07;102113.63;5083871;28;20844;-58
2022/05/14 00:43:57;;;;;;;43.97;26.42;;;;;;;21.06;46.23;102120.97;5085134;28;20078;-57
2022/05/14 00:46:32;;;;;;;41.63;25.48;;;;;;;21.07;46.11;102111.06;5083128;28;20441;-58
2022/05/14 00:48:59;;;;;;;46.45;27.00;;;;;;;21.05;46.30;102113.88;5081329;28;20465;-58
2022/05/14 00:51:32;;;;;;;45.45;25.80;;;;;;;21.06;46.33;102114.75;5082014;28;20036;-57
2022/05/14 00:54:07;;;;;;;41.15;25.75;;;;;;;21.03;46.02;102115.03;5082038;28;20131;-58
2022/05/14 00:56:59;;;;;;;42.28;24.27;;;;;;;21.03;46.43;102115.91;5083709;28;20319;-57
2022/05/14 00:59:27;;;;;;;41.33;24.45;;;;;;;21.03;46.30;102115.91;5082783;28;20047;-59
2022/05/14 01:01:55;;;;;;;41.33;25.23;;;;;;;21.01;46.22;102112.47;5081596;28;20036;-60
2022/05/14 01:04:23;;;;;;;38.88;23.33;;;;;;;21.02;46.40;102114.16;5083312;28;20043;-57
2022/05/14 01:06:55;;;;;;;42.55;23.90;;;;;;;20.99;46.84;102114.47;5088592;28;20048;-59
2022/05/14 01:09:22;;;;;;;40.13;23.08;;;;;;;20.98;46.40;102118.16;5083374;28;20059;-58
2022/05/14 01:11:51;;;;;;;39.15;23.13;;;;;;;20.97;46.37;102113.75;5082988;28;20047;-58
2022/05/14 01:14:19;;;;;;;39.65;23.00;;;;;;;20.97;46.27;102126.38;5061783;28;20446;-58
2022/05/14 01:16:46;;;;;;;36.33;22.20;;;;;;;20.96;46.09;102128.22;5082917;28;20051;-58
2022/05/14 01:19:13;;;;;;;39.10;22.10;;;;;;;20.96;45.89;102114.75;5085349;28;20059;-59
2022/05/14 01:22:08;;;;;;;39.80;22.23;;;;;;;20.94;46.55;102122.13;5083157;28;20044;-58
2022/05/14 01:27:29;;;;;;;34.75;20.50;;;;;;;20.94;46.24;102116.72;5084625;28;20140;-59
2022/05/14 01:29:56;;;;;;;37.85;21.52;;;;;;;20.92;46.38;102116.88;5082254;28;20059;-57
2022/05/14 01:32:22;;;;;;;36.58;21.33;;;;;;;20.91;46.07;102112.50;5079495;28;20044;-58
2022/05/14 01:34:50;;;;;;;34.33;19.95;;;;;;;20.90;46.47;102118.00;5082554;28;20047;-59
2022/05/14 01:37:18;;;;;;;32.80;19.52;;;;;;;20.89;46.42;102114.47;5082804;28;20123;-58
2022/05/14 01:39:44;;;;;;;35.45;19.83;;;;;;;20.88;46.56;102120.00;5084700;28;20044;-58
2022/05/14 01:42:11;;;;;;;34.35;19.70;;;;;;;20.87;46.87;102121.84;5083385;28;20066;-57
2022/05/14 01:44:38;;;;;;;36.05;20.55;;;;;;;20.88;47.31;102130.78;5086857;28;20144;-57
2022/05/14 01:47:04;;;;;;;30.88;18.45;;;;;;;20.86;47.09;102136.28;5086958;28;20514;-58
2022/05/14 01:49:31;;;;;;;34.45;19.83;;;;;;;20.86;47.04;102130.06;5085031;28;20378;-57
2022/05/14 01:51:58;;;;;;;33.72;19.02;;;;;;;20.86;47.16;102135.44;5083248;28;20442;-59
2022/05/14 01:54:24;;;;;;;33.10;19.08;;;;;;;20.86;46.72;102130.91;5086284;28;20101;-58
2022/05/14 01:56:51;;;;;;;33.55;19.35;;;;;;;20.84;47.27;102132.06;5084366;28;20132;-58
2022/05/14 01:59:17;;;;;;;31.85;18.08;;;;;;;20.85;47.01;102131.06;5087640;28;20323;-57
2022/05/14 02:01:44;;;;;;;29.80;17.42;;;;;;;20.84;47.40;102129.38;5085677;28;20058;-57
2022/05/14 02:04:13;;;;;;;34.05;18.42;;;;;;;20.82;46.96;102134.88;5084830;28;20048;-58
2022/05/14 02:06:41;;;;;;;29.45;17.38;;;;;;;20.83;46.91;102133.06;5091235;28;20054;-57
2022/05/14 02:09:10;;;;;;;33.35;18.15;;;;;;;20.82;47.53;102129.47;5089742;28;20067;-57
2022/05/14 02:11:39;;;;;;;29.25;17.02;;;;;;;20.80;47.68;102131.47;5085120;28;20411;-57
2022/05/14 02:14:06;;;;;;;31.02;17.10;;;;;;;20.80;47.09;102138.72;5088469;28;20058;-57
2022/05/14 02:16:33;;;;;;;30.02;16.85;;;;;;;20.79;47.27;102135.19;5087081;28;20067;-59
2022/05/14 02:19:00;;;;;;;28.70;16.33;;;;;;;20.79;47.80;102145.09;5082941;28;20048;-57
2022/05/14 02:21:28;;;;;;;29.85;16.85;;;;;;;20.78;47.15;102133.44;5086424;28;20048;-58
2022/05/14 02:23:55;;;;;;;29.02;16.73;;;;;;;20.78;47.40;102135.28;5086042;28;20131;-58
2022/05/14 02:26:22;;;;;;;27.70;16.45;;;;;;;20.77;47.53;102130.91;5084820;28;20056;-57
2022/05/14 02:28:49;;;;;;;28.05;15.75;;;;;;;20.78;47.13;102132.59;5084860;28;20079;-58
2022/05/14 02:31:16;;;;;;;26.25;15.07;;;;;;;20.75;47.33;102135.59;5084971;28;20047;-57
2022/05/14 02:33:43;;;;;;;25.30;14.65;;;;;;;20.74;47.19;102137.41;5084835;28;20060;-57
2022/05/14 02:36:10;;;;;;;26.70;14.75;;;;;;;20.72;47.41;102144.81;5085098;28;20063;-57
2022/05/14 02:38:38;;;;;;;25.55;14.50;;;;;;;20.73;47.92;102142.97;5085324;28;20077;-57
2022/05/14 02:41:06;;;;;;;25.50;14.23;;;;;;;20.73;46.98;102145.66;5084763;28;20419;-57
2022/05/14 02:43:33;;;;;;;23.25;13.85;;;;;;;20.70;47.39;102142.25;5081804;28;20058;-58
2022/05/14 02:46:01;;;;;;;23.95;14.70;;;;;;;20.70;47.32;102152.16;5086535;28;20043;-59
2022/05/14 02:48:27;;;;;;;23.58;13.55;;;;;;;20.69;47.38;102139.69;5083949;28;20052;-58
2022/05/14 02:50:57;;;;;;;25.25;14.85;;;;;;;20.68;47.58;102146.94;5085804;28;20059;-58
2022/05/14 02:53:23;;;;;;;27.42;14.45;;;;;;;20.67;47.71;102149.78;5082451;28;20053;-58
2022/05/14 02:55:50;;;;;;;23.33;13.27;;;;;;;20.66;47.31;102143.53;5086760;28;20054;-58
2022/05/14 02:59:06;;;;;;;24.95;13.30;;;;;;;20.65;47.74;102143.66;5085362;28;20058;-57
2022/05/14 03:01:05;;;;;;;25.92;13.45;;;;;;;20.63;47.48;102151.03;5086246;28;21989;-58
2022/05/14 03:03:32;;;;;;;22.55;12.73;;;;;;;20.63;47.82;102145.66;5086586;28;20050;-59
2022/05/14 03:05:59;;;;;;;23.35;12.48;;;;;;;20.62;48.03;102150.19;5083293;28;20052;-58
2022/05/14 03:08:26;;;;;;;21.67;11.88;;;;;;;20.62;47.42;102144.81;5083049;28;20048;-59
2022/05/14 03:10:53;;;;;;;23.23;13.30;;;;;;;20.60;48.08;102136.00;5084233;28;20082;-58
2022/05/14 03:13:19;;;;;;;22.20;12.48;;;;;;;20.59;47.78;102134.31;5086041;28;20735;-58
2022/05/14 03:15:46;;;;;;;20.98;11.88;;;;;;;20.59;48.04;102134.31;5085828;28;20040;-58
2022/05/14 03:18:12;;;;;;;17.98;10.65;;;;;;;20.58;48.08;102142.50;5084162;28;20507;-57
2022/05/14 03:20:39;;;;;;;22.13;11.93;;;;;;;20.58;48.37;102142.50;5082812;28;20836;-58
2022/05/14 03:23:06;;;;;;;21.10;12.13;;;;;;;20.56;47.87;102133.72;5083882;28;20392;-58
2022/05/14 03:25:32;;;;;;;19.77;11.05;;;;;;;20.56;47.90;102131.03;5084824;28;20050;-57
2022/05/14 03:27:59;;;;;;;20.75;11.50;;;;;;;20.55;47.81;102132.88;5082728;28;20052;-57
2022/05/14 03:30:26;;;;;;;20.92;11.07;;;;;;;20.55;48.08;102149.03;5084684;28;20438;-57
2022/05/14 03:32:52;;;;;;;18.17;10.65;;;;;;;20.55;47.84;102143.66;5082362;28;20060;-58
2022/05/14 03:35:19;;;;;;;18.55;10.52;;;;;;;20.54;48.13;102152.69;5084205;28;20036;-57
2022/05/14 03:37:45;;;;;;;17.58;10.80;;;;;;;20.54;48.36;102151.84;5084051;28;20051;-57
2022/05/14 03:40:13;;;;;;;20.52;10.65;;;;;;;20.54;47.67;102147.31;5086106;28;20370;-57
2022/05/14 03:42:39;;;;;;;19.40;10.65;;;;;;;20.54;47.94;102143.78;5080745;28;20051;-57
2022/05/14 03:45:07;;;;;;;18.30;10.65;;;;;;;20.53;48.05;102144.75;5084365;28;20128;-56
2022/05/14 03:47:33;;;;;;;18.40;10.15;;;;;;;20.52;48.17;102154.69;5085717;28;20044;-57
2022/05/14 03:50:00;;;;;;;18.75;10.18;;;;;;;20.51;48.12;102153.00;5086029;28;20401;-58
2022/05/14 03:52:26;;;;;;;19.23;9.30;;;;;;;20.52;47.57;102164.63;5082656;28;20131;-57
2022/05/14 03:54:53;;;;;;;18.33;9.70;;;;;;;20.51;48.28;102157.53;5084448;28;20143;-56
2022/05/14 03:57:19;;;;;;;18.13;10.50;;;;;;;20.52;48.11;102153.84;5083248;28;20047;-57
2022/05/14 03:59:46;;;;;;;19.15;9.45;;;;;;;20.51;48.14;102150.31;5082072;28;20364;-57
2022/05/14 04:02:13;;;;;;;18.20;9.15;;;;;;;20.51;47.90;102152.16;5081416;28;20050;-57
2022/05/14 04:04:39;;;;;;;17.55;9.98;;;;;;;20.51;47.58;102155.69;5085542;28;20052;-58
2022/05/14 04:07:06;;;;;;;19.88;9.73;;;;;;;20.50;48.28;102161.19;5086205;28;20048;-57
2022/05/14 04:09:33;;;;;;;16.25;9.40;;;;;;;20.51;47.96;102153.00;5083169;28;20048;-57
2022/05/14 04:11:59;;;;;;;20.15;9.68;;;;;;;20.49;48.09;102154.97;5085774;28;20302;-57
2022/05/14 04:14:26;;;;;;;18.17;8.98;;;;;;;20.50;48.36;102145.88;5089617;28;20296;-57
2022/05/14 04:16:52;;;;;;;14.75;8.55;;;;;;;20.51;48.22;102150.31;5083254;28;20044;-58
2022/05/14 04:19:19;;;;;;;14.93;8.50;;;;;;;20.50;47.81;102156.66;5082639;28;20473;-58
2022/05/14 04:21:46;;;;;;;19.10;9.90;;;;;;;20.50;47.73;102156.66;5084267;28;20338;-58
2022/05/14 04:24:14;;;;;;;15.00;8.20;;;;;;;20.51;47.83;102154.84;5083081;28;20144;-58
2022/05/14 04:26:41;;;;;;;15.70;8.43;;;;;;;20.52;48.10;102167.31;5084731;28;20050;-57
2022/05/14 04:29:08;;;;;;;14.02;8.80;;;;;;;20.51;47.76;102157.53;5082009;28;20096;-57
2022/05/14 04:31:36;;;;;;;15.23;8.00;;;;;;;20.50;47.79;102156.66;5083212;28;20048;-58
2022/05/14 04:34:02;;;;;;;14.98;8.40;;;;;;;20.50;48.35;102167.44;5083134;28;20048;-58
2022/05/14 04:36:29;;;;;;;17.75;7.85;;;;;;;20.51;48.17;102171.84;5082454;28;20048;-58
2022/05/14 04:38:56;;;;;;;16.35;7.93;;;;;;;20.52;48.41;102170.00;5083552;28;20078;-58
2022/05/14 04:41:24;;;;;;;14.95;7.57;;;;;;;20.51;48.41;102179.09;5081937;28;20044;-58
2022/05/14 04:43:51;;;;;;;14.15;7.25;;;;;;;20.52;48.08;102176.25;5082056;28;20584;-58
2022/05/14 04:46:17;;;;;;;14.45;7.90;;;;;;;20.50;48.34;102172.81;5083064;28;20052;-57
2022/05/14 04:48:44;;;;;;;16.65;8.25;;;;;;;20.52;47.84;102181.63;5082013;28;20101;-59
2022/05/14 04:51:10;;;;;;;15.43;8.02;;;;;;;20.52;47.70;102178.94;5082583;28;20412;-57
2022/05/14 04:53:37;;;;;;;12.55;6.93;;;;;;;20.52;48.39;102181.63;5084608;28;20044;-58
2022/05/14 04:56:04;;;;;;;13.85;7.43;;;;;;;20.52;47.99;102189.72;5082308;28;20058;-57
2022/05/14 04:58:30;;;;;;;14.60;8.15;;;;;;;20.52;47.79;102189.72;5081303;28;20040;-57
2022/05/14 05:00:57;;;;;;;13.05;7.32;;;;;;;20.52;47.74;102189.72;5078414;28;20039;-57
2022/05/14 05:03:24;;;;;;;13.60;7.22;;;;;;;20.53;48.02;102188.72;5079451;28;20502;-58
2022/05/14 05:05:56;;;;;;;13.85;7.03;;;;;;;20.54;48.28;102190.41;5082994;28;20108;-57
2022/05/14 05:08:25;;;;;;;14.25;7.65;;;;;;;20.53;47.75;102180.63;5079297;28;20054;-57
2022/05/14 05:10:52;;;;;;;16.00;7.25;;;;;;;20.55;48.34;102186.75;5078354;28;20052;-57
2022/05/14 05:13:21;;;;;;;14.75;6.78;;;;;;;20.55;47.94;102194.84;5087285;28;20048;-58
2022/05/14 05:15:49;;;;;;;14.07;7.32;;;;;;;20.55;47.82;102196.66;5085171;28;20136;-57
2022/05/14 05:18:16;;;;;;;13.93;6.88;;;;;;;20.57;48.05;102200.06;5080231;28;20048;-58
2022/05/14 05:20:45;;;;;;;12.77;5.97;;;;;;;20.59;47.65;102198.94;5084700;28;20048;-58
2022/05/14 05:23:13;;;;;;;11.90;6.22;;;;;;;20.59;47.78;102188.19;5082802;28;20074;-57
2022/05/14 05:25:41;;;;;;;13.50;7.35;;;;;;;20.60;47.75;102195.25;5083446;28;20135;-58
2022/05/14 05:28:08;;;;;;;11.55;6.22;;;;;;;20.61;47.88;102207.72;5080758;28;20052;-57
2022/05/14 05:30:35;;;;;;;14.18;7.20;;;;;;;20.61;47.90;102213.13;5079116;28;20339;-58
2022/05/14 05:33:02;;;;;;;12.07;6.63;;;;;;;20.63;47.57;102213.00;5083078;28;20135;-57
2022/05/14 05:35:29;;;;;;;11.10;6.68;;;;;;;20.65;48.00;102209.16;5080432;28;20040;-59
2022/05/14 05:37:55;;;;;;;10.48;5.93;;;;;;;20.66;47.42;102208.19;5082010;28;20487;-58
2022/05/14 05:40:22;;;;;;;11.15;5.75;;;;;;;20.67;47.65;102209.03;5083801;28;20127;-57
2022/05/14 05:42:48;;;;;;;10.02;5.63;;;;;;;20.67;47.62;102209.88;5080838;28;20044;-58
2022/05/14 05:45:16;;;;;;;10.15;5.93;;;;;;;20.67;47.84;102226.06;5079331;28;20052;-57
2022/05/14 05:47:43;;;;;;;13.18;6.28;;;;;;;20.68;47.75;102225.06;5082958;28;20140;-56
2022/05/14 05:50:11;;;;;;;10.63;5.82;;;;;;;20.69;47.95;102225.91;5084076;28;20046;-59
2022/05/14 05:52:37;;;;;;;11.00;5.63;;;;;;;20.73;47.35;102229.19;5082987;28;20369;-58
2022/05/14 05:57:51;;;;;;;9.73;5.63;;;;;;;20.74;47.59;102218.25;5083225;28;20058;-58
2022/05/14 06:00:24;;;;;;;21.52;7.75;;;;;;;20.75;47.26;102229.91;5082886;28;20064;-59
2022/05/14 06:02:51;;;;;;;18.35;7.97;;;;;;;20.76;47.40;102245.06;5083988;28;20086;-58
2022/05/14 06:05:18;;;;;;;28.17;10.75;;;;;;;20.78;47.89;102245.78;5084308;28;20048;-57
2022/05/14 06:07:44;;;;;;;27.33;10.77;;;;;;;20.79;48.36;102242.13;5079932;28;20049;-58
2022/05/14 06:10:13;;;;;;;37.42;10.57;;;;;;;20.80;47.94;102236.56;5081459;28;20139;-56
2022/05/14 06:12:40;;;;;;;25.77;9.50;;;;;;;20.81;48.29;102226.66;5081199;28;20046;-57
2022/05/14 06:15:08;;;;;;;26.50;9.35;;;;;;;20.81;47.76;102227.50;5085918;28;20396;-58
2022/05/14 06:17:35;;;;;;;24.40;9.68;;;;;;;20.81;47.75;102235.59;5088340;28;20126;-58
2022/05/14 06:20:04;;;;;;;31.25;9.75;;;;;;;20.81;48.00;102242.81;5082158;28;20064;-58
2022/05/14 06:22:31;;;;;;;25.63;10.02;;;;;;;20.81;48.12;102251.75;5084343;28;20044;-58
2022/05/14 06:24:58;;;;;;;26.52;8.90;;;;;;;20.81;47.42;102243.66;5086455;28;20140;-57
2022/05/14 06:27:25;;;;;;;23.80;9.15;;;;;;;20.84;48.03;102247.94;5087259;28;20134;-57
2022/05/14 06:29:51;;;;;;;21.50;9.00;;;;;;;20.85;47.63;102244.25;5087978;28;20142;-57
2022/05/14 06:32:18;;;;;;;21.88;9.02;;;;;;;20.87;47.94;102248.53;5092347;28;20035;-57
2022/05/14 06:34:44;;;;;;;21.90;9.05;;;;;;;20.88;47.31;102252.91;5092562;28;20044;-58
2022/05/14 06:37:13;;;;;;;22.77;9.10;;;;;;;20.88;48.13;102252.91;5091893;28;20048;-57
2022/05/14 06:39:41;;;;;;;23.98;9.10;;;;;;;20.90;48.11;102258.16;5091133;28;20075;-58
2022/05/14 06:42:07;;;;;;;20.17;8.85;;;;;;;20.90;47.63;102259.03;5088068;28;20047;-59
2022/05/14 06:44:34;;;;;;;23.10;9.38;;;;;;;20.91;47.62;102258.03;5084705;28;20135;-57
2022/05/14 06:47:01;;;;;;;23.13;9.18;;;;;;;20.93;47.43;102249.78;5084974;28;20330;-58
2022/05/14 06:49:33;;;;;;;23.70;9.15;;;;;;;20.93;47.54;102247.94;5087142;28;20075;-57
2022/05/14 06:52:03;;;;;;;24.52;9.38;;;;;;;20.95;47.98;102255.91;5088906;28;20144;-58
2022/05/14 06:54:32;;;;;;;23.27;9.40;;;;;;;20.94;47.18;102259.56;5092430;28;20044;-57
2022/05/14 06:57:01;;;;;;;23.08;10.23;;;;;;;20.95;47.69;102272.94;5091861;28;20054;-58
2022/05/14 06:59:28;;;;;;;21.00;9.07;;;;;;;20.96;47.71;102260.31;5092383;28;20335;-57
2022/05/14 07:01:54;;;;;;;18.27;8.25;;;;;;;20.98;47.94;102258.31;5080241;28;20435;-58
2022/05/14 07:07:17;;;;;;;20.23;8.35;;;;;;;20.99;47.65;102262.72;5001552;28;20141;-57
2022/05/14 07:09:44;;;;;;;17.63;7.55;;;;;;;21.00;47.75;102272.50;5091965;28;20071;-58
2022/05/14 07:12:12;;;;;;;16.95;7.38;;;;;;;21.00;47.34;102272.50;5086939;28;20481;-58
2022/05/14 07:14:43;;;;;;;20.60;7.70;;;;;;;21.01;47.42;102271.50;5087009;28;20054;-58
2022/05/14 07:17:11;;;;;;;20.30;8.60;;;;;;;21.01;47.60;102266.13;5092934;28;20072;-58
2022/05/14 07:19:38;;;;;;;17.33;8.52;;;;;;;21.02;47.48;102267.81;5088422;28;20515;-58
2022/05/14 07:22:06;;;;;;;22.83;9.35;;;;;;;21.03;47.40;102272.25;5090892;28;20343;-56
2022/05/14 07:24:33;;;;;;;18.00;8.43;;;;;;;21.04;47.56;102271.25;5085847;28;20048;-58
2022/05/14 07:27:03;;;;;;;21.02;10.02;;;;;;;21.06;47.55;102265.69;5089841;28;20087;-58
2022/05/14 07:29:30;;;;;;;18.05;8.27;;;;;;;21.06;47.16;102285.44;5085665;28;20343;-57
2022/05/14 07:31:57;;;;;;;22.15;9.00;;;;;;;21.07;47.46;102280.91;5086341;28;20391;-58
2022/05/14 07:34:25;;;;;;;17.65;7.82;;;;;;;21.07;47.31;102275.53;5088979;28;20032;-58
2022/05/14 07:37:05;;;;;;;21.25;9.98;;;;;;;21.08;47.17;102280.75;5088657;28;20048;-58
2022/05/14 07:39:39;;;;;;;16.58;7.90;;;;;;;21.10;47.40;102278.75;5090263;28;20128;-57
2022/05/14 07:42:11;;;;;;;18.35;8.43;;;;;;;21.12;47.39;102282.19;5071209;28;20126;-58
2022/05/14 07:44:41;;;;;;;18.77;8.57;;;;;;;21.13;47.03;102283.03;5087713;28;20304;-58
2022/05/14 07:47:08;;;;;;;19.88;8.80;;;;;;;21.14;47.30;102288.28;5090485;28;20052;-59
2022/05/14 07:49:37;;;;;;;17.38;7.80;;;;;;;21.16;46.93;102293.56;5084499;28;20240;-59
2022/05/14 07:52:04;;;;;;;17.38;7.93;;;;;;;21.16;46.71;102288.16;5091187;28;20138;-58
2022/05/14 07:54:32;;;;;;;17.60;7.78;;;;;;;21.18;47.36;102287.00;5090049;28;20062;-58
2022/05/14 07:57:00;;;;;;;14.93;7.85;;;;;;;21.19;47.27;102288.72;5088316;28;20130;-58
2022/05/14 07:59:27;;;;;;;16.55;7.85;;;;;;;21.20;46.78;102295.81;5090686;28;20055;-57
2022/05/14 08:01:54;;;;;;;16.65;7.07;;;;;;;21.23;46.94;102297.41;5088876;28;20039;-57
2022/05/14 08:04:20;;;;;;;17.27;8.07;;;;;;;21.25;46.95;102306.19;5089046;28;20051;-58
2022/05/14 08:06:47;;;;;;;20.52;6.95;;;;;;;21.26;47.11;102298.94;5088893;28;20334;-58
2022/05/14 08:09:13;;;;;;;15.50;8.05;;;;;;;21.28;46.92;102283.50;5088797;28;20044;-58
2022/05/14 08:11:40;;;;;;;13.35;6.60;;;;;;;21.29;47.31;102285.19;5089450;28;20047;-57
2022/05/14 08:14:07;;;;;;;14.45;7.05;;;;;;;21.29;47.07;102290.59;5089002;28;20130;-58
2022/05/14 08:16:33;;;;;;;17.67;7.57;;;;;;;21.30;46.68;102297.69;5086904;28;20048;-59
2022/05/14 08:19:00;;;;;;;15.63;7.35;;;;;;;21.31;46.57;102288.63;5086409;28;20440;-59
2022/05/14 08:24:30;;;;;;;16.13;7.28;;;;;;;21.33;46.65;102286.66;5084788;28;20036;-59
2022/05/14 08:27:08;;;;;;;13.63;6.78;;;;;;;21.32;46.91;102288.50;5084230;28;20046;-58
2022/05/14 08:29:40;;;;;;;15.45;7.28;;;;;;;21.33;46.65;102295.59;5085348;28;20135;-58
2022/05/14 08:32:08;;;;;;;18.40;7.05;;;;;;;21.34;46.96;102280.25;5089091;28;20135;-59
2022/05/14 08:34:35;;;;;;;15.20;6.65;;;;;;;21.35;46.54;102288.22;5082793;28;20149;-58
2022/05/14 08:37:04;;;;;;;13.40;7.00;;;;;;;21.35;46.72;102288.22;5082786;28;20044;-58
2022/05/14 08:39:31;;;;;;;12.55;5.57;;;;;;;21.36;46.94;102300.72;5087649;28;20075;-58
2022/05/14 08:41:59;;;;;;;15.13;6.20;;;;;;;21.38;46.83;102295.16;5088587;28;20146;-60
2022/05/14 08:44:33;;;;;;;14.85;5.85;;;;;;;21.39;46.63;102288.81;5088571;28;20086;-59
2022/05/14 08:47:04;;;;;;;11.85;5.32;;;;;;;21.39;46.28;102289.66;5088171;28;20052;-59
2022/05/14 08:49:44;;;;;;;10.85;5.32;;;;;;;21.39;46.35;102289.66;5087232;28;20097;-59
2022/05/14 08:52:16;;;;;;;11.65;5.70;;;;;;;21.40;46.58;102291.34;5084658;28;20305;-59
2022/05/14 08:54:42;;;;;;;13.52;6.00;;;;;;;21.42;46.60;102291.19;5087951;28;20119;-59
2022/05/14 08:57:25;;;;;;;13.23;5.75;;;;;;;21.43;46.11;102298.31;5088539;28;20154;-58
2022/05/14 08:59:55;;;;;;;11.98;5.45;;;;;;;21.44;46.35;102292.75;5086051;28;20143;-59
2022/05/14 09:02:30;;;;;;;11.98;4.97;;;;;;;21.45;46.63;102282.81;5085172;28;20315;-58
2022/05/14 09:05:04;;;;;;;14.13;5.80;;;;;;;21.45;46.44;102277.44;5084167;28;20040;-58
2022/05/14 09:07:32;;;;;;;10.82;4.75;;;;;;;21.48;46.15;102279.00;5088115;28;20050;-58
2022/05/14 09:10:08;;;;;;;12.27;4.93;;;;;;;21.49;46.54;102284.25;5083782;28;20330;-58
2022/05/14 09:12:49;;;;;;;12.63;5.68;;;;;;;21.52;46.21;102288.53;5087510;28;20063;-59
2022/05/14 09:15:16;;;;;;;13.13;5.35;;;;;;;21.54;46.35;102291.91;5089592;28;20127;-58
2022/05/14 09:17:43;;;;;;;12.20;5.18;;;;;;;21.56;46.08;102293.47;5071714;28;20424;-60
2022/05/14 09:20:09;;;;;;;10.55;4.93;;;;;;;21.58;46.18;102286.09;5090046;28;20054;-60
2022/05/14 09:22:52;;;;;;;9.20;4.18;;;;;;;21.61;46.21;102287.66;5088889;28;20127;-59
2022/05/14 09:25:29;;;;;;;11.80;4.97;;;;;;;21.64;46.24;102290.94;5086391;28;20054;-59
2022/05/14 09:28:09;;;;;;;10.02;4.85;;;;;;;21.67;46.37;102287.09;5086609;28;20057;-59
2022/05/14 09:30:42;;;;;;;8.77;4.57;;;;;;;21.71;46.60;102290.34;5088872;28;20426;-59
2022/05/14 09:33:24;;;;;;;13.82;4.75;;;;;;;21.71;46.47;102291.22;5085957;28;20044;-59
2022/05/14 09:36:00;;;;;;;12.15;4.72;;;;;;;21.74;46.01;102287.38;5087042;28;20147;-59
2022/05/14 09:38:28;;;;;;;13.13;4.38;;;;;;;21.76;45.93;102288.09;5089178;28;20137;-59
2022/05/14 09:41:08;;;;;;;10.85;4.53;;;;;;;21.75;46.07;102289.94;5083682;28;20044;-59
2022/05/14 09:43:37;;;;;;;10.60;3.88;;;;;;;21.76;45.81;102297.03;5087792;28;20040;-60
2022/05/14 09:46:10;;;;;;;8.93;4.40;;;;;;;21.77;45.74;102304.13;5088388;28;20064;-60
2022/05/14 09:48:48;;;;;;;11.70;4.68;;;;;;;21.78;45.58;102299.56;5090100;28;20078;-59
2022/05/14 09:51:56;;;;;;;10.10;4.00;;;;;;;21.77;45.27;102293.34;5082926;28;20119;-57
2022/05/14 09:54:43;;;;;;;14.23;4.03;;;;;;;21.81;45.17;102289.34;5086424;28;20120;-58
2022/05/14 09:57:27;;;;;;;8.48;4.38;;;;;;;21.85;45.50;102306.13;5090099;28;20331;-59
2022/05/14 10:00:11;;;;;;;10.05;4.43;;;;;;;21.88;45.70;102309.38;5093279;28;20134;-59
2022/05/14 10:02:43;;;;;;;8.48;4.13;;;;;;;21.92;45.66;102297.31;5092633;28;20062;-58
2022/05/14 10:05:16;;;;;;;12.25;4.15;;;;;;;21.96;45.74;102292.47;5091010;28;20142;-57
2022/05/14 10:07:50;;;;;;;11.05;4.20;;;;;;;22.01;45.64;102297.44;5085423;28;20084;-58
2022/05/14 10:10:52;;;;;;;8.98;3.95;;;;;;;22.05;45.41;102301.53;5090323;28;20048;-58
2022/05/14 10:13:29;;;;;;;8.50;3.80;;;;;;;22.09;45.43;102306.50;5090202;28;20119;-58
2022/05/14 10:16:16;;;;;;;10.55;4.40;;;;;;;22.12;45.48;102300.81;5090626;28;20095;-58
2022/05/14 10:18:59;;;;;;;11.88;4.30;;;;;;;22.16;45.23;102298.72;5090937;28;20048;-58
2022/05/14 10:21:31;;;;;;;11.52;3.95;;;;;;;22.18;45.22;102302.94;5091384;28;20048;-58
2022/05/14 10:27:11;;;;;;;8.18;3.35;;;;;;;22.21;45.07;102307.22;5085979;28;20629;-58
2022/05/14 10:29:47;;;;;;;10.13;3.63;;;;;;;22.24;45.23;102304.25;5088423;28;20052;-59
2022/05/14 10:32:21;;;;;;;8.35;3.05;;;;;;;22.27;45.38;102295.84;5088528;28;20043;-60
2022/05/14 10:35:06;;;;;;;7.80;3.45;;;;;;;22.31;44.86;102309.88;5089815;28;20038;-59
2022/05/14 10:37:50;;;;;;;11.02;4.03;;;;;;;22.31;45.12;102302.66;5089276;28;20127;-59
2022/05/14 10:40:31;;;;;;;10.55;3.58;;;;;;;22.35;45.10;102300.50;5091095;28;20079;-59
2022/05/14 10:43:01;;;;;;;9.02;3.75;;;;;;;22.38;44.83;102302.91;5088987;28;20052;-60
2022/05/14 10:45:34;;;;;;;10.55;4.40;;;;;;;22.41;44.95;102298.06;5090325;28;20672;-60
2022/05/14 10:48:07;;;;;;;8.90;3.08;;;;;;;22.44;44.81;102299.63;5089819;28;20084;-59
2022/05/14 10:50:33;;;;;;;8.73;3.57;;;;;;;22.49;45.05;102299.19;5089508;28;20131;-60
2022/05/14 10:53:06;;;;;;;8.77;3.58;;;;;;;22.51;45.03;102306.13;5091057;28;20140;-59
2022/05/14 10:56:06;;;;;;;8.75;3.45;;;;;;;22.55;44.66;102296.75;5090414;28;20044;-60
2022/05/14 10:58:51;;;;;;;7.53;3.20;;;;;;;22.58;44.66;102299.13;5091916;28;20076;-60
2022/05/14 11:01:35;;;;;;;7.88;3.63;;;;;;;22.61;44.71;102298.00;5090160;28;20040;-60
2022/05/14 11:04:21;;;;;;;7.57;3.30;;;;;;;22.63;44.62;102301.38;5088564;28;20040;-60
2022/05/14 11:07:00;;;;;;;8.85;3.38;;;;;;;22.65;44.42;102310.22;5090454;28;20043;-59
2022/05/14 11:09:49;;;;;;;9.77;3.35;;;;;;;22.66;44.52;102306.50;5091480;28;20115;-59
2022/05/14 11:12:21;;;;;;;7.38;3.00;;;;;;;22.69;44.61;102314.31;5089134;28;20485;-59
2022/05/14 11:14:51;;;;;;;7.85;3.30;;;;;;;22.70;44.51;102305.22;5092246;28;20039;-60
2022/05/14 11:17:27;;;;;;;9.20;3.70;;;;;;;22.72;44.37;102305.06;5090557;28;20048;-59
2022/05/14 11:20:03;;;;;;;11.20;3.90;;;;;;;22.74;44.66;102305.75;5088269;28;20052;-60
2022/05/14 11:22:43;;;;;;;13.07;3.88;;;;;;;22.74;44.20;102309.31;5086208;28;20147;-61
2022/05/14 11:25:21;;;;;;;9.15;3.53;;;;;;;22.75;44.46;102293.94;5088872;28;20054;-60
2022/05/14 11:27:57;;;;;;;12.57;3.58;;;;;;;22.77;44.19;102305.47;5089036;28;20135;-60
2022/05/14 11:30:32;;;;;;;9.10;3.90;;;;;;;22.78;44.46;102301.75;5090230;28;20066;-59
2022/05/14 11:33:03;;;;;;;9.90;3.50;;;;;;;22.79;44.42;102309.72;5091116;28;20131;-57
2022/05/14 11:35:44;;;;;;;9.32;3.75;;;;;;;22.80;44.41;102308.72;5083055;28;20131;-59
2022/05/14 11:38:15;;;;;;;11.25;3.75;;;;;;;22.83;44.57;102319.22;5084756;28;20048;-61
2022/05/14 11:40:42;;;;;;;9.93;3.88;;;;;;;22.86;44.14;102301.88;5086711;28;20054;-60
2022/05/14 11:43:11;;;;;;;12.52;3.97;;;;;;;22.87;43.90;102306.25;5089396;28;20147;-59
2022/05/14 11:45:49;;;;;;;10.82;3.22;;;;;;;22.89;44.18;102312.38;5089368;28;20046;-60